Time;durP1;ratioP1;P1;durP2;ratioP2;P2;SDS_P1;SDS_P2;PMS_P1;PMS_P2;Temp;Humidity;BMP_temperature;BMP_pressure;BME280_temperature;BME280_humidity;BME280_pressure;Samples;Min_cycle;Max_cycle;Signal;HPM_P1;HPM_P2
2023/03/19 00:00:03;;;;;;;37.42;34.03;;;10.40;99.90;;;;;;5024122;28;20488;-74
2023/03/19 00:02:31;;;;;;;39.83;36.25;;;10.40;99.90;;;;;;5031696;28;20067;-74
2023/03/19 00:04:57;;;;;;;40.25;36.55;;;10.40;99.90;;;;;;5012675;28;20487;-74
2023/03/19 00:07:22;;;;;;;39.97;36.45;;;10.40;99.90;;;;;;5031234;28;20059;-74
2023/03/19 00:09:48;;;;;;;40.15;36.35;;;10.40;99.90;;;;;;5028629;28;20044;-74
2023/03/19 00:12:14;;;;;;;37.10;33.78;;;10.40;99.90;;;;;;5021849;28;20076;-74
2023/03/19 00:14:41;;;;;;;37.90;34.40;;;10.40;99.90;;;;;;5037041;28;20119;-74
2023/03/19 00:17:10;;;;;;;36.63;33.20;;;10.40;99.90;;;;;;5014364;28;20146;-74
2023/03/19 00:19:36;;;;;;;37.67;34.33;;;10.40;99.90;;;;;;5022238;28;20059;-74
2023/03/19 00:22:01;;;;;;;35.70;32.40;;;10.40;99.90;;;;;;5015718;28;20040;-74
2023/03/19 00:24:27;;;;;;;34.30;31.10;;;10.40;99.90;;;;;;5030201;28;20546;-74
2023/03/19 00:26:53;;;;;;;35.63;32.25;;;10.40;99.90;;;;;;5047936;28;20040;-74
2023/03/19 00:29:22;;;;;;;33.80;30.70;;;10.40;99.90;;;;;;5046859;28;20117;-74
2023/03/19 00:31:48;;;;;;;36.30;32.90;;;10.40;99.90;;;;;;5051677;28;20494;-74
2023/03/19 00:34:17;;;;;;;35.03;31.85;;;10.50;99.90;;;;;;5044422;28;20239;-74
2023/03/19 00:36:44;;;;;;;33.13;30.23;;;10.40;99.90;;;;;;5068468;28;20123;-74
2023/03/19 00:39:10;;;;;;;35.13;31.92;;;10.50;99.90;;;;;;5064780;28;20063;-74
2023/03/19 00:41:36;;;;;;;34.33;31.20;;;10.50;99.90;;;;;;5051662;28;20051;-73
2023/03/19 00:44:02;;;;;;;34.10;31.05;;;10.50;99.90;;;;;;5066077;28;20248;-74
2023/03/19 00:46:28;;;;;;;35.40;32.17;;;10.50;99.90;;;;;;5048955;28;20043;-74
2023/03/19 00:48:54;;;;;;;33.88;30.60;;;10.50;99.90;;;;;;5062870;28;20052;-74
2023/03/19 00:51:22;;;;;;;35.10;31.92;;;10.50;99.90;;;;;;5046434;28;20047;-74
2023/03/19 00:53:49;;;;;;;34.22;31.02;;;10.50;99.90;;;;;;5041125;28;20185;-74
2023/03/19 00:56:17;;;;;;;32.38;29.38;;;10.50;99.90;;;;;;5066521;28;20044;-73
2023/03/19 00:58:43;;;;;;;31.65;28.83;;;10.60;99.90;;;;;;5028701;28;20047;-74
2023/03/19 01:01:11;;;;;;;31.48;28.55;;;10.60;99.90;;;;;;5064124;28;20047;-74
2023/03/19 01:03:37;;;;;;;31.92;29.05;;;10.60;99.90;;;;;;5032775;28;20425;-74
2023/03/19 01:06:03;;;;;;;31.00;28.08;;;10.60;99.90;;;;;;5050085;28;20036;-74
2023/03/19 01:08:29;;;;;;;29.65;27.00;;;10.60;99.90;;;;;;5059844;28;20047;-74
2023/03/19 01:10:56;;;;;;;30.40;27.60;;;10.60;99.90;;;;;;5048948;28;20048;-74
2023/03/19 01:13:21;;;;;;;30.52;27.73;;;10.60;99.90;;;;;;5047885;28;20485;-74
2023/03/19 01:15:52;;;;;;;30.75;27.88;;;10.60;99.90;;;;;;5061998;28;20039;-74
2023/03/19 01:18:17;;;;;;;29.15;26.45;;;10.60;99.90;;;;;;5046876;28;20555;-74
2023/03/19 01:20:43;;;;;;;29.63;27.02;;;10.60;99.90;;;;;;5067350;28;20497;-74
2023/03/19 01:23:09;;;;;;;28.45;25.90;;;10.60;99.90;;;;;;5059616;28;20455;-74
2023/03/19 01:25:35;;;;;;;25.52;23.13;;;10.60;99.90;;;;;;5062842;28;20521;-74
2023/03/19 01:28:03;;;;;;;26.05;23.83;;;10.60;99.90;;;;;;5047040;28;20196;-73
2023/03/19 01:30:31;;;;;;;27.45;24.83;;;10.60;99.90;;;;;;5048354;28;20100;-73
2023/03/19 01:32:57;;;;;;;25.13;22.92;;;10.60;99.90;;;;;;5047699;28;20047;-74
2023/03/19 01:35:23;;;;;;;26.38;23.88;;;10.70;99.90;;;;;;5046848;28;20040;-74
2023/03/19 01:37:49;;;;;;;24.85;22.48;;;10.60;99.90;;;;;;5043589;28;20499;-73
2023/03/19 01:40:15;;;;;;;22.77;20.70;;;10.60;99.90;;;;;;5031828;28;20048;-74
2023/03/19 01:43:27;;;;;;;21.60;19.52;;;10.60;99.90;;;;;;5054587;28;20050;-74
2023/03/19 01:46:00;;;;;;;21.35;19.35;;;10.60;99.90;;;;;;5024492;28;20368;-74
2023/03/19 01:48:39;;;;;;;19.27;17.33;;;10.60;99.90;;;;;;5062661;28;20047;-74
2023/03/19 01:51:08;;;;;;;19.35;17.55;;;10.60;99.90;;;;;;5045969;28;20052;-74
2023/03/19 01:53:36;;;;;;;21.02;18.88;;;10.60;99.90;;;;;;5060036;28;20102;-74
2023/03/19 01:56:10;;;;;;;20.15;18.25;;;10.60;99.90;;;;;;5047129;28;20163;-73
2023/03/19 01:58:37;;;;;;;19.98;18.08;;;10.60;99.90;;;;;;5063596;28;20047;-74
2023/03/19 02:01:03;;;;;;;18.13;16.40;;;10.50;99.90;;;;;;5048193;28;20036;-74
2023/03/19 02:03:32;;;;;;;21.10;19.00;;;10.50;99.90;;;;;;5063021;28;20039;-74
2023/03/19 02:05:58;;;;;;;17.70;16.00;;;10.50;99.90;;;;;;5048377;28;20524;-74
2023/03/19 02:08:26;;;;;;;16.27;14.63;;;10.50;99.90;;;;;;5050993;28;20040;-74
2023/03/19 02:10:54;;;;;;;16.75;14.95;;;10.50;99.90;;;;;;5028751;28;20185;-75
2023/03/19 02:13:28;;;;;;;15.30;13.80;;;10.50;99.90;;;;;;5047051;28;20048;-74
2023/03/19 02:15:54;;;;;;;13.93;12.52;;;10.50;99.90;;;;;;5064141;28;20048;-74
2023/03/19 02:18:20;;;;;;;13.65;12.23;;;10.40;99.90;;;;;;5055712;28;20040;-74
2023/03/19 02:21:05;;;;;;;13.50;12.05;;;10.40;99.90;;;;;;5033291;28;20442;-74
2023/03/19 02:23:51;;;;;;;14.23;12.95;;;10.40;99.90;;;;;;5059538;28;20079;-74
2023/03/19 02:26:22;;;;;;;13.75;12.45;;;10.30;99.90;;;;;;5061306;28;20085;-75
2023/03/19 02:28:50;;;;;;;12.43;11.23;;;10.30;99.90;;;;;;5064613;28;20091;-74
2023/03/19 02:31:19;;;;;;;;;;;10.30;99.90;;;;;;5031042;28;20127;-74
2023/03/19 02:34:00;;;;;;;12.43;11.20;;;10.30;99.90;;;;;;5062969;28;19920;-74
2023/03/19 02:36:31;;;;;;;13.38;12.00;;;10.20;99.90;;;;;;5081005;28;20047;-72
2023/03/19 02:39:00;;;;;;;12.98;11.77;;;10.20;99.90;;;;;;5063716;28;20039;-72
2023/03/19 02:41:26;;;;;;;12.95;11.77;;;10.20;99.90;;;;;;5033382;28;20048;-72
2023/03/19 02:43:53;;;;;;;11.93;10.80;;;10.20;99.90;;;;;;5062903;28;20257;-74
2023/03/19 02:46:19;;;;;;;13.32;12.13;;;10.20;99.90;;;;;;5062673;28;20048;-74
2023/03/19 02:48:45;;;;;;;13.45;12.07;;;10.20;99.90;;;;;;5045606;28;20036;-74
2023/03/19 02:51:12;;;;;;;11.88;10.68;;;10.20;99.90;;;;;;5048626;28;20571;-74
2023/03/19 02:53:38;;;;;;;13.25;11.02;;;10.20;99.90;;;;;;5049841;28;20067;-74
2023/03/19 02:56:04;;;;;;;11.95;10.75;;;10.20;99.90;;;;;;5068793;28;20040;-74
2023/03/19 02:58:30;;;;;;;12.32;11.07;;;10.20;99.90;;;;;;5063435;28;21242;-74
2023/03/19 03:00:56;;;;;;;12.52;11.27;;;10.20;99.90;;;;;;5063577;28;20040;-75
2023/03/19 03:03:21;;;;;;;12.40;11.10;;;10.20;99.90;;;;;;5035361;28;20451;-74
2023/03/19 03:05:47;;;;;;;11.57;10.43;;;10.10;99.90;;;;;;5070885;28;20104;-74
2023/03/19 03:08:13;;;;;;;12.60;10.90;;;10.10;99.90;;;;;;5066295;28;20462;-74
2023/03/19 03:10:39;;;;;;;12.40;11.20;;;10.10;99.90;;;;;;5054266;28;20341;-75
2023/03/19 03:13:04;;;;;;;12.60;11.30;;;10.10;99.90;;;;;;5027570;28;20398;-74
2023/03/19 03:15:30;;;;;;;12.60;11.40;;;10.10;99.90;;;;;;5047257;28;20048;-75
2023/03/19 03:17:56;;;;;;;13.23;11.00;;;10.10;99.90;;;;;;5061310;28;20053;-74
2023/03/19 03:20:23;;;;;;;12.35;11.25;;;10.10;99.90;;;;;;5054239;28;20181;-74
2023/03/19 03:22:49;;;;;;;11.43;10.27;;;10.00;99.90;;;;;;5041764;28;20048;-74
2023/03/19 03:25:15;;;;;;;15.93;14.10;;;10.00;99.90;;;;;;5063378;28;20059;-74
2023/03/19 03:27:41;;;;;;;12.52;11.23;;;10.00;99.90;;;;;;5054406;28;20076;-74
2023/03/19 03:30:09;;;;;;;13.10;11.85;;;10.00;99.90;;;;;;5051723;28;20397;-74
2023/03/19 03:32:40;;;;;;;13.45;12.25;;;10.00;99.90;;;;;;5060522;28;20052;-74
2023/03/19 03:35:10;;;;;;;13.13;11.93;;;9.90;99.90;;;;;;5046542;28;20051;-74
2023/03/19 03:37:36;;;;;;;16.05;14.45;;;9.90;99.90;;;;;;5067530;28;20044;-74
2023/03/19 03:40:07;;;;;;;15.82;14.15;;;9.90;99.90;;;;;;5047428;28;20498;-74
2023/03/19 03:42:36;;;;;;;;;;;9.90;99.90;;;;;;5038051;28;20044;-74
2023/03/19 03:45:02;;;;;;;13.02;11.65;;;9.90;99.90;;;;;;5020099;28;19920;-74
2023/03/19 03:47:31;;;;;;;12.75;11.55;;;9.90;99.90;;;;;;5068257;28;20044;-74
2023/03/19 03:49:57;;;;;;;10.48;9.23;;;9.90;99.90;;;;;;5053300;28;20555;-74
2023/03/19 03:52:22;;;;;;;10.23;9.15;;;10.00;99.90;;;;;;5046972;28;20068;-74
2023/03/19 03:54:48;;;;;;;8.38;7.50;;;10.00;99.90;;;;;;5061664;28;20055;-74
2023/03/19 03:57:14;;;;;;;9.45;8.60;;;10.00;99.90;;;;;;5059381;28;20048;-74
2023/03/19 03:59:41;;;;;;;9.38;8.38;;;10.10;99.90;;;;;;5054553;28;20048;-74
2023/03/19 04:02:07;;;;;;;9.27;8.38;;;10.10;99.90;;;;;;5063442;28;20040;-74
2023/03/19 04:04:33;;;;;;;8.90;8.05;;;10.10;99.90;;;;;;5055741;28;20058;-74
2023/03/19 04:06:58;;;;;;;9.52;8.63;;;10.10;99.90;;;;;;5061196;28;20052;-74
2023/03/19 04:09:25;;;;;;;9.45;8.50;;;10.10;99.90;;;;;;5070014;28;20048;-72
2023/03/19 04:11:51;;;;;;;11.50;10.32;;;10.20;99.90;;;;;;5062111;28;20084;-72
2023/03/19 04:14:16;;;;;;;10.40;8.77;;;10.10;99.90;;;;;;5047419;28;20564;-72
2023/03/19 04:16:43;;;;;;;10.10;9.10;;;10.10;99.90;;;;;;5046988;28;20055;-72
2023/03/19 04:19:09;;;;;;;11.82;9.52;;;10.10;99.90;;;;;;5066261;28;20036;-72
2023/03/19 04:21:38;;;;;;;10.75;9.63;;;10.10;99.90;;;;;;5032274;28;20052;-72
2023/03/19 04:24:04;;;;;;;12.40;10.77;;;10.10;99.90;;;;;;5016084;28;20806;-71
2023/03/19 04:26:30;;;;;;;12.13;10.90;;;10.20;99.90;;;;;;5050357;28;20071;-72
2023/03/19 04:28:57;;;;;;;12.30;10.82;;;10.20;99.90;;;;;;5039625;28;20510;-72
2023/03/19 04:31:23;;;;;;;12.90;11.50;;;10.20;99.90;;;;;;5052207;28;20572;-72
2023/03/19 04:33:48;;;;;;;12.80;11.63;;;10.20;99.90;;;;;;5065923;28;20028;-72
2023/03/19 04:36:16;;;;;;;13.38;12.05;;;10.20;99.90;;;;;;5055109;28;20121;-72
2023/03/19 04:38:42;;;;;;;13.68;12.32;;;10.20;99.90;;;;;;5059263;28;20048;-72
2023/03/19 04:41:08;;;;;;;13.27;12.02;;;10.20;99.90;;;;;;5064590;28;20039;-72
2023/03/19 04:43:34;;;;;;;13.27;12.05;;;10.20;99.90;;;;;;5036068;28;20048;-72
2023/03/19 04:46:00;;;;;;;12.20;11.00;;;10.20;99.90;;;;;;5031921;28;20051;-71
2023/03/19 04:48:26;;;;;;;14.30;12.95;;;10.10;99.90;;;;;;5048516;28;20402;-72
2023/03/19 04:50:55;;;;;;;14.02;12.60;;;10.10;99.90;;;;;;5038224;28;20086;-72
2023/03/19 04:53:22;;;;;;;16.60;14.90;;;10.00;99.90;;;;;;5063669;28;20541;-72
2023/03/19 04:55:48;;;;;;;14.60;13.10;;;9.90;99.90;;;;;;5031792;28;20306;-72
2023/03/19 04:58:13;;;;;;;14.57;13.15;;;9.90;99.90;;;;;;5065652;28;20048;-72
2023/03/19 05:00:39;;;;;;;19.40;13.60;;;9.80;99.90;;;;;;5046107;28;20048;-72
2023/03/19 05:03:06;;;;;;;13.57;12.18;;;9.80;99.90;;;;;;5043805;28;20103;-72
2023/03/19 05:05:34;;;;;;;14.80;13.32;;;9.80;99.90;;;;;;5052023;28;20039;-72
2023/03/19 05:08:00;;;;;;;13.85;12.55;;;9.70;99.90;;;;;;5024588;28;20084;-72
2023/03/19 05:10:28;;;;;;;14.63;13.05;;;9.70;99.90;;;;;;5045246;28;20079;-72
2023/03/19 05:12:54;;;;;;;14.13;12.75;;;9.70;99.90;;;;;;5064836;28;20035;-72
2023/03/19 05:15:20;;;;;;;13.18;11.65;;;9.70;99.90;;;;;;5068673;28;20044;-72
2023/03/19 05:17:46;;;;;;;14.70;12.80;;;9.60;99.90;;;;;;5049473;28;20051;-71
2023/03/19 05:20:13;;;;;;;15.00;13.57;;;9.60;99.90;;;;;;5052419;28;20040;-72
2023/03/19 05:22:39;;;;;;;13.73;12.32;;;9.50;99.90;;;;;;5049317;28;20119;-72
2023/03/19 05:25:05;;;;;;;14.18;12.35;;;9.40;99.90;;;;;;5057499;28;20150;-72
2023/03/19 05:27:31;;;;;;;12.50;11.23;;;9.50;99.90;;;;;;5049851;28;20048;-72
2023/03/19 05:29:57;;;;;;;13.63;12.23;;;9.40;99.90;;;;;;5049456;28;20821;-71
2023/03/19 05:32:26;;;;;;;13.27;12.07;;;9.30;99.90;;;;;;5062843;28;20163;-72
2023/03/19 05:34:51;;;;;;;12.38;11.27;;;9.30;99.90;;;;;;5059629;28;20418;-71
2023/03/19 05:37:17;;;;;;;13.32;12.05;;;9.30;99.90;;;;;;5031500;28;20044;-72
2023/03/19 05:39:43;;;;;;;13.15;11.82;;;9.20;99.90;;;;;;5057320;28;20040;-72
2023/03/19 05:42:11;;;;;;;15.05;13.57;;;9.20;99.90;;;;;;5068523;28;20040;-72
2023/03/19 05:44:37;;;;;;;13.95;12.65;;;9.10;99.90;;;;;;5051073;28;20554;-72
2023/03/19 05:47:03;;;;;;;13.18;11.98;;;9.10;99.90;;;;;;5049701;28;20059;-72
2023/03/19 05:49:32;;;;;;;14.10;12.70;;;9.10;99.90;;;;;;5063471;28;20062;-72
2023/03/19 05:51:57;;;;;;;15.18;13.68;;;9.00;99.90;;;;;;5072349;28;20058;-72
2023/03/19 05:54:23;;;;;;;14.02;12.70;;;9.00;99.90;;;;;;5040041;28;20667;-72
2023/03/19 05:56:49;;;;;;;14.35;12.90;;;9.00;99.90;;;;;;5049814;28;20055;-72
2023/03/19 05:59:15;;;;;;;14.45;13.05;;;9.00;99.90;;;;;;5049307;28;21192;-72
2023/03/19 06:01:41;;;;;;;14.70;13.25;;;9.00;99.90;;;;;;5041868;28;20063;-72
2023/03/19 06:04:07;;;;;;;12.60;11.50;;;9.00;99.90;;;;;;5043271;28;20041;-72
2023/03/19 06:06:33;;;;;;;13.82;12.27;;;9.00;99.90;;;;;;5060169;28;20074;-72
2023/03/19 06:08:58;;;;;;;14.43;12.73;;;9.00;99.90;;;;;;5042909;28;20461;-72
2023/03/19 06:11:24;;;;;;;16.05;14.45;;;9.00;99.90;;;;;;5061563;28;20051;-71
2023/03/19 06:13:53;;;;;;;14.68;13.20;;;8.90;99.90;;;;;;5049180;28;20549;-71
2023/03/19 06:16:22;;;;;;;14.85;13.32;;;9.00;99.90;;;;;;5040781;28;20044;-72
2023/03/19 06:18:48;;;;;;;15.27;13.73;;;9.00;99.90;;;;;;5042204;28;20502;-72
2023/03/19 06:21:14;;;;;;;17.25;15.35;;;9.00;99.90;;;;;;5047653;28;20063;-72
2023/03/19 06:23:40;;;;;;;16.15;14.63;;;8.90;99.90;;;;;;5065284;28;20056;-72
2023/03/19 06:26:06;;;;;;;17.15;14.82;;;8.90;99.90;;;;;;5053827;28;20036;-72
2023/03/19 06:28:32;;;;;;;15.13;13.68;;;9.00;99.90;;;;;;5043257;28;20080;-72
2023/03/19 06:30:57;;;;;;;20.75;17.52;;;9.00;99.90;;;;;;5065502;28;20036;-72
2023/03/19 06:33:26;;;;;;;15.55;13.95;;;9.10;99.90;;;;;;5061472;28;20056;-72
2023/03/19 06:35:52;;;;;;;16.73;14.98;;;9.20;99.90;;;;;;5053269;28;20044;-71
2023/03/19 06:38:21;;;;;;;16.38;14.77;;;9.20;99.90;;;;;;5033351;28;20052;-72
2023/03/19 06:40:47;;;;;;;16.23;14.63;;;9.20;99.90;;;;;;5053353;28;20134;-72
2023/03/19 06:43:12;;;;;;;17.42;15.73;;;9.20;99.90;;;;;;5065324;28;20120;-72
2023/03/19 06:45:38;;;;;;;20.35;18.25;;;9.20;99.90;;;;;;5055585;28;20125;-72
2023/03/19 06:48:04;;;;;;;18.52;16.67;;;9.20;99.90;;;;;;5046576;28;20072;-72
2023/03/19 06:50:30;;;;;;;17.48;15.77;;;9.20;99.90;;;;;;5067045;28;20048;-74
2023/03/19 06:52:57;;;;;;;20.00;17.90;;;9.20;99.90;;;;;;5036832;28;20055;-74
2023/03/19 06:55:23;;;;;;;18.33;16.42;;;9.20;99.90;;;;;;5014130;28;20072;-74
2023/03/19 06:57:49;;;;;;;19.85;17.75;;;9.20;99.90;;;;;;5050609;28;20054;-74
2023/03/19 07:00:16;;;;;;;16.45;14.90;;;9.20;99.90;;;;;;5052394;28;20048;-74
2023/03/19 07:02:42;;;;;;;18.33;16.73;;;9.20;99.90;;;;;;5060289;28;20109;-74
2023/03/19 07:05:08;;;;;;;18.40;16.60;;;9.30;99.90;;;;;;5066351;28;20402;-74
2023/03/19 07:07:34;;;;;;;20.70;18.65;;;9.30;99.90;;;;;;5036493;28;20127;-74
2023/03/19 07:10:02;;;;;;;20.00;18.00;;;9.40;99.90;;;;;;5055223;28;20056;-74
2023/03/19 07:12:28;;;;;;;21.10;19.00;;;9.40;99.90;;;;;;5059972;28;20520;-74
2023/03/19 07:14:57;;;;;;;19.33;17.52;;;9.50;99.90;;;;;;5048609;28;20359;-74
2023/03/19 07:17:23;;;;;;;18.45;16.65;;;9.50;99.90;;;;;;5048478;28;20040;-75
2023/03/19 07:19:49;;;;;;;18.73;16.92;;;9.60;99.90;;;;;;5011993;28;20043;-74
2023/03/19 07:22:15;;;;;;;19.13;17.23;;;9.70;99.90;;;;;;5047550;28;20393;-74
2023/03/19 07:24:41;;;;;;;19.83;17.92;;;9.80;99.90;;;;;;5045953;28;20048;-75
2023/03/19 07:27:07;;;;;;;20.05;18.25;;;9.90;99.90;;;;;;5045960;28;20436;-74
2023/03/19 07:29:36;;;;;;;19.48;17.67;;;10.00;99.90;;;;;;5052242;28;20072;-75
2023/03/19 07:32:02;;;;;;;19.73;17.83;;;10.10;99.90;;;;;;5064052;28;20059;-75
2023/03/19 07:34:28;;;;;;;19.38;17.58;;;10.20;99.90;;;;;;5046380;28;20509;-75
2023/03/19 07:36:53;;;;;;;19.40;17.40;;;10.30;99.90;;;;;;5046367;28;20056;-75
2023/03/19 07:39:22;;;;;;;18.63;16.90;;;10.40;99.90;;;;;;5068450;28;20119;-75
2023/03/19 07:41:48;;;;;;;18.63;16.92;;;10.50;99.90;;;;;;5048129;28;20102;-75
2023/03/19 07:44:15;;;;;;;16.20;14.75;;;10.60;99.90;;;;;;5064745;28;20470;-75
2023/03/19 07:46:44;;;;;;;16.38;14.77;;;10.70;99.90;;;;;;5033031;28;20050;-75
2023/03/19 07:49:13;;;;;;;16.23;14.73;;;10.80;99.90;;;;;;5061108;28;20032;-75
2023/03/19 07:51:38;;;;;;;17.70;15.95;;;10.90;99.90;;;;;;5067044;28;20126;-75
2023/03/19 07:54:04;;;;;;;15.93;14.45;;;11.00;99.90;;;;;;5065530;28;20170;-75
2023/03/19 07:56:30;;;;;;;16.13;14.60;;;11.00;99.90;;;;;;5035540;28;20101;-74
2023/03/19 07:58:56;;;;;;;16.38;14.82;;;11.10;99.90;;;;;;5064613;28;20490;-75
2023/03/19 08:01:22;;;;;;;16.92;15.43;;;11.20;99.90;;;;;;5066401;28;20039;-75
2023/03/19 08:03:48;;;;;;;17.92;16.33;;;11.40;99.90;;;;;;5031938;28;20044;-74
2023/03/19 08:06:14;;;;;;;17.05;15.52;;;11.50;99.90;;;;;;5042634;28;20113;-75
2023/03/19 08:08:39;;;;;;;19.58;17.77;;;11.60;99.90;;;;;;5033362;28;20047;-75
2023/03/19 08:11:06;;;;;;;19.48;17.67;;;11.60;99.90;;;;;;5049608;28;20047;-75
2023/03/19 08:13:35;;;;;;;20.30;18.50;;;11.50;99.90;;;;;;5051137;28;20055;-74
2023/03/19 08:16:01;;;;;;;19.08;17.23;;;11.40;99.90;;;;;;5041187;28;20047;-74
2023/03/19 08:18:27;;;;;;;19.02;17.23;;;11.40;99.90;;;;;;5042382;28;20127;-75
2023/03/19 08:20:52;;;;;;;17.27;15.65;;;11.40;99.90;;;;;;5031733;28;20050;-74
2023/03/19 08:23:18;;;;;;;17.98;16.38;;;11.40;99.90;;;;;;5048452;28;20161;-74
2023/03/19 08:25:50;;;;;;;17.75;16.15;;;11.50;99.90;;;;;;5031761;28;20048;-75
2023/03/19 08:28:19;;;;;;;18.55;16.85;;;11.70;99.90;;;;;;5034064;28;20434;-76
2023/03/19 08:30:48;;;;;;;19.10;17.20;;;11.80;99.90;;;;;;5028476;28;20059;-75
2023/03/19 08:33:15;;;;;;;19.27;17.58;;;11.80;99.90;;;;;;5013464;28;20111;-74
2023/03/19 08:35:41;;;;;;;19.20;17.40;;;11.70;99.90;;;;;;5028623;28;20113;-75
2023/03/19 08:38:07;;;;;;;18.98;17.27;;;11.60;99.90;;;;;;5034594;28;20044;-75
2023/03/19 08:40:33;;;;;;;18.05;16.40;;;11.50;99.90;;;;;;5040433;28;20249;-74
2023/03/19 08:42:58;;;;;;;18.08;16.40;;;11.40;99.90;;;;;;5046554;28;20054;-73
2023/03/19 08:45:25;;;;;;;17.35;15.75;;;11.40;99.90;;;;;;5053114;28;20040;-73
2023/03/19 08:47:51;;;;;;;17.65;15.98;;;11.40;99.90;;;;;;5051919;28;20056;-70
2023/03/19 08:50:17;;;;;;;15.85;14.35;;;11.30;99.90;;;;;;5046637;28;20055;-70
2023/03/19 08:52:43;;;;;;;15.73;14.23;;;11.30;99.90;;;;;;5058143;28;20589;-70
2023/03/19 08:55:12;;;;;;;16.48;14.88;;;11.30;99.90;;;;;;5027806;28;20056;-70
2023/03/19 08:57:37;;;;;;;16.23;14.73;;;11.30;99.90;;;;;;5050622;28;20387;-71
2023/03/19 09:00:05;;;;;;;17.02;15.52;;;11.40;99.90;;;;;;5044655;28;20055;-70
2023/03/19 09:02:31;;;;;;;16.25;14.85;;;11.30;99.90;;;;;;5055938;28;20079;-70
2023/03/19 09:04:56;;;;;;;15.75;14.25;;;11.40;99.90;;;;;;5052750;28;20117;-70
2023/03/19 09:07:22;;;;;;;16.13;14.63;;;11.30;99.90;;;;;;5041475;28;20040;-70
2023/03/19 09:09:48;;;;;;;15.77;14.27;;;11.30;99.90;;;;;;5055079;28;20127;-70
2023/03/19 09:12:15;;;;;;;15.68;14.27;;;11.30;99.90;;;;;;5050888;28;20088;-71
2023/03/19 09:14:42;;;;;;;14.80;13.40;;;11.30;99.90;;;;;;5041521;28;20353;-70
2023/03/19 09:17:09;;;;;;;14.95;13.65;;;11.40;99.90;;;;;;5064170;28;20182;-70
2023/03/19 09:19:35;;;;;;;14.88;13.48;;;11.50;99.90;;;;;;5062080;28;20132;-70
2023/03/19 09:22:02;;;;;;;15.20;13.70;;;11.50;99.90;;;;;;5047519;28;20044;-70
2023/03/19 09:24:28;;;;;;;14.65;13.15;;;11.50;99.90;;;;;;5046328;28;20053;-70
2023/03/19 09:26:54;;;;;;;15.27;13.88;;;11.60;99.90;;;;;;5026230;28;20068;-71
2023/03/19 09:29:20;;;;;;;14.95;13.57;;;11.60;99.90;;;;;;5033048;28;20119;-70
2023/03/19 09:31:45;;;;;;;14.57;13.15;;;11.60;99.90;;;;;;5027073;28;20446;-70
2023/03/19 09:34:12;;;;;;;14.73;13.32;;;11.60;99.90;;;;;;5028708;28;20401;-69
2023/03/19 09:36:38;;;;;;;14.68;13.15;;;11.70;99.90;;;;;;5025352;28;20044;-70
2023/03/19 09:39:05;;;;;;;13.35;12.07;;;11.80;99.90;;;;;;5036319;28;20339;-71
2023/03/19 09:41:48;;;;;;;13.80;12.50;;;12.00;99.90;;;;;;5036576;28;20376;-71
2023/03/19 09:44:21;;;;;;;13.93;12.63;;;12.20;99.90;;;;;;5044493;28;20468;-70
2023/03/19 09:47:06;;;;;;;13.43;12.23;;;12.30;99.90;;;;;;5040746;28;20194;-70
2023/03/19 09:49:42;;;;;;;14.10;12.70;;;12.30;99.90;;;;;;5020137;28;20044;-70
2023/03/19 09:52:32;;;;;;;14.05;12.50;;;12.30;99.90;;;;;;5042965;28;20049;-70
2023/03/19 09:55:09;;;;;;;14.70;13.30;;;12.20;99.90;;;;;;5040934;28;20033;-70
2023/03/19 09:57:39;;;;;;;14.07;12.88;;;12.10;99.90;;;;;;5022260;28;20049;-70
2023/03/19 10:00:19;;;;;;;15.95;14.43;;;12.10;99.90;;;;;;5029046;28;20449;-70
2023/03/19 10:03:05;;;;;;;15.60;14.20;;;12.00;99.90;;;;;;5032424;28;20479;-70
2023/03/19 10:05:40;;;;;;;15.70;14.25;;;11.90;99.90;;;;;;5042310;28;20105;-70
2023/03/19 10:08:43;;;;;;;13.20;11.90;;;12.00;99.90;;;;;;5041123;28;20052;-70
2023/03/19 10:11:51;;;;;;;14.15;12.77;;;12.00;99.90;;;;;;5041305;28;20526;-70
2023/03/19 10:14:51;;;;;;;15.27;13.77;;;11.90;99.90;;;;;;5026508;28;20085;-70
2023/03/19 10:17:36;;;;;;;16.17;14.73;;;11.90;99.90;;;;;;5038759;28;20124;-70
2023/03/19 10:20:09;;;;;;;15.32;13.73;;;11.90;99.90;;;;;;5035252;28;20041;-70
2023/03/19 10:22:45;;;;;;;16.50;14.90;;;11.90;99.90;;;;;;5024038;28;20059;-70
2023/03/19 10:25:17;;;;;;;17.05;15.05;;;11.90;99.90;;;;;;5047994;28;20064;-70
2023/03/19 10:27:46;;;;;;;16.98;15.48;;;11.90;99.90;;;;;;5057675;28;20607;-70
2023/03/19 10:30:17;;;;;;;18.02;16.30;;;11.80;99.90;;;;;;5051323;28;20040;-70
2023/03/19 10:32:47;;;;;;;19.27;17.38;;;11.80;99.90;;;;;;5038553;28;20036;-70
2023/03/19 10:35:23;;;;;;;18.88;17.08;;;11.80;99.90;;;;;;5042727;28;20525;-70
2023/03/19 10:37:49;;;;;;;18.35;16.75;;;11.80;99.90;;;;;;5060662;28;20044;-70
2023/03/19 10:40:36;;;;;;;19.00;17.10;;;11.80;99.90;;;;;;5030736;28;20076;-70
2023/03/19 10:43:15;;;;;;;20.70;18.70;;;11.80;99.90;;;;;;5064150;28;20043;-70
2023/03/19 10:45:41;;;;;;;20.73;18.83;;;11.80;99.90;;;;;;5053125;28;20506;-70
2023/03/19 10:48:15;;;;;;;21.65;19.65;;;11.80;99.90;;;;;;5050628;28;20048;-70
2023/03/19 10:50:51;;;;;;;22.02;19.90;;;11.80;99.90;;;;;;5029246;28;20052;-70
2023/03/19 10:53:17;;;;;;;22.00;19.90;;;11.80;99.90;;;;;;5061042;28;20130;-70
2023/03/19 10:56:04;;;;;;;20.85;18.92;;;11.80;99.90;;;;;;5063500;28;20127;-70
2023/03/19 10:58:34;;;;;;;21.52;19.52;;;11.90;99.90;;;;;;5053677;28;20076;-70
2023/03/19 11:01:03;;;;;;;21.58;19.63;;;11.90;99.90;;;;;;5055753;28;20040;-71
2023/03/19 11:03:40;;;;;;;20.17;18.35;;;12.00;99.90;;;;;;5058952;28;20402;-71
2023/03/19 11:06:21;;;;;;;21.42;19.52;;;12.00;99.90;;;;;;5058944;28;20079;-71
2023/03/19 11:08:54;;;;;;;20.83;18.95;;;12.00;99.90;;;;;;5053945;28;20137;-71
2023/03/19 11:11:35;;;;;;;21.85;19.80;;;12.10;99.90;;;;;;5034557;28;20129;-71
2023/03/19 11:14:38;;;;;;;22.05;20.05;;;12.10;99.90;;;;;;5053593;28;20044;-71
2023/03/19 11:17:21;;;;;;;22.58;20.60;;;12.10;99.90;;;;;;5051556;28;20080;-71
2023/03/19 11:20:42;;;;;;;23.80;21.48;;;12.00;99.90;;;;;;5058251;28;20055;-71
2023/03/19 11:23:15;;;;;;;22.05;20.02;;;12.10;99.90;;;;;;4984063;28;20525;-71
2023/03/19 11:25:48;;;;;;;20.35;18.45;;;12.00;99.90;;;;;;5058651;28;20060;-71
2023/03/19 11:28:24;;;;;;;21.00;19.00;;;12.00;99.90;;;;;;5075813;28;20139;-71
2023/03/19 11:31:18;;;;;;;20.00;18.20;;;12.00;99.90;;;;;;5056968;28;20130;-71
2023/03/19 11:33:57;;;;;;;20.58;18.67;;;12.00;99.90;;;;;;5055123;28;20060;-71
2023/03/19 11:36:47;;;;;;;20.13;18.23;;;12.00;99.90;;;;;;5041690;28;20584;-70
2023/03/19 11:39:39;;;;;;;20.63;18.67;;;12.00;99.90;;;;;;5059722;28;20046;-71
2023/03/19 11:42:30;;;;;;;18.98;17.30;;;12.00;99.90;;;;;;5045497;28;20359;-71
2023/03/19 11:45:11;;;;;;;19.75;17.85;;;12.10;99.90;;;;;;5054405;28;20667;-71
2023/03/19 11:48:13;;;;;;;20.70;18.75;;;12.20;99.90;;;;;;5054230;28;20467;-71
2023/03/19 11:50:50;;;;;;;20.50;18.73;;;12.30;99.90;;;;;;5060538;28;20116;-71
2023/03/19 11:54:12;;;;;;;20.85;18.85;;;12.30;99.90;;;;;;5059742;28;20049;-71
2023/03/19 11:56:48;;;;;;;20.45;18.65;;;12.30;99.90;;;;;;5002285;28;20500;-71
2023/03/19 11:59:47;;;;;;;19.25;17.40;;;12.30;99.90;;;;;;5069911;28;20852;-71
2023/03/19 12:02:39;;;;;;;18.08;16.48;;;12.40;99.90;;;;;;5057234;28;20124;-71
2023/03/19 12:05:17;;;;;;;21.05;18.77;;;12.50;99.90;;;;;;5061648;28;20048;-72
2023/03/19 12:08:09;;;;;;;21.35;19.35;;;12.50;99.90;;;;;;5061587;28;20083;-71
2023/03/19 12:11:08;;;;;;;20.08;18.27;;;12.50;99.90;;;;;;5050266;28;20048;-71
2023/03/19 12:13:50;;;;;;;21.08;19.08;;;12.50;99.90;;;;;;5039273;28;20055;-71
2023/03/19 12:16:25;;;;;;;19.52;17.73;;;12.40;99.90;;;;;;5064065;28;20043;-71
2023/03/19 12:19:16;;;;;;;19.08;17.25;;;12.50;99.90;;;;;;5060539;28;20105;-71
2023/03/19 12:22:03;;;;;;;19.10;17.30;;;12.50;99.90;;;;;;5064625;28;20048;-71
2023/03/19 12:25:00;;;;;;;21.10;19.20;;;12.50;99.90;;;;;;5043772;28;20048;-71
2023/03/19 12:27:52;;;;;;;21.33;19.30;;;12.50;99.90;;;;;;5065257;28;20052;-71
2023/03/19 12:30:37;;;;;;;21.48;19.48;;;12.40;99.90;;;;;;5061904;28;20036;-71
2023/03/19 12:33:12;;;;;;;22.02;19.95;;;12.30;99.90;;;;;;5046894;28;20508;-71
2023/03/19 12:35:40;;;;;;;20.20;18.15;;;12.30;99.90;;;;;;5062892;28;20048;-71
2023/03/19 12:38:18;;;;;;;20.70;18.80;;;12.30;99.90;;;;;;5065233;28;20093;-72
2023/03/19 12:40:47;;;;;;;20.05;18.10;;;12.40;99.90;;;;;;5044545;28;20047;-71
2023/03/19 12:43:41;;;;;;;20.75;18.75;;;12.40;99.90;;;;;;5063945;28;20062;-71
2023/03/19 12:46:18;;;;;;;20.80;18.90;;;12.50;99.90;;;;;;4987395;28;20061;-71